Time;durP1;ratioP1;P1;durP2;ratioP2;P2;SDS_P1;SDS_P2;PMS_P1;PMS_P2;Temp;Humidity;BMP_temperature;BMP_pressure;BME280_temperature;BME280_humidity;BME280_pressure;Samples;Min_cycle;Max_cycle;Signal;HPM_P1;HPM_P2
2022/04/24 00:01:18;;;;;;;54.50;22.70;;;10.70;39.90;;;;;;5010744;28;20476;-61
2022/04/24 00:03:45;;;;;;;57.30;24.27;;;10.60;40.00;;;;;;5013572;28;20837;-61
2022/04/24 00:06:12;;;;;;;52.50;22.67;;;10.60;40.00;;;;;;5005562;28;20485;-62
2022/04/24 00:08:40;;;;;;;52.30;21.70;;;10.60;40.00;;;;;;5008207;28;20482;-61
2022/04/24 00:11:06;;;;;;;54.17;21.23;;;10.60;40.20;;;;;;5005989;28;21028;-61
2022/04/24 00:13:37;;;;;;;50.60;21.77;;;10.60;40.50;;;;;;5013560;28;20474;-61
2022/04/24 00:16:05;;;;;;;55.80;24.80;;;10.60;40.60;;;;;;5012151;28;20461;-61
2022/04/24 00:18:32;;;;;;;53.80;22.83;;;10.60;40.40;;;;;;5010212;28;20542;-62
2022/04/24 00:20:59;;;;;;;54.13;23.00;;;10.60;40.50;;;;;;5011654;28;20463;-61
2022/04/24 00:23:25;;;;;;;56.73;25.20;;;10.60;40.50;;;;;;5007539;28;20472;-60
2022/04/24 00:25:54;;;;;;;56.53;25.50;;;10.60;40.60;;;;;;5011357;28;21066;-60
2022/04/24 00:28:20;;;;;;;55.17;24.10;;;10.60;40.90;;;;;;5005331;28;21188;-61
2022/04/24 00:30:47;;;;;;;58.07;27.60;;;10.70;41.10;;;;;;5013584;28;20536;-60
2022/04/24 00:33:14;;;;;;;54.90;24.83;;;10.70;41.00;;;;;;5006250;28;20475;-61
2022/04/24 00:35:41;;;;;;;55.90;25.10;;;10.70;40.80;;;;;;5014661;28;20486;-61
2022/04/24 00:38:08;;;;;;;58.47;25.93;;;10.70;40.80;;;;;;5010512;28;20990;-61
2022/04/24 00:40:34;;;;;;;55.20;24.30;;;10.70;41.10;;;;;;5012409;28;20471;-61
2022/04/24 00:43:02;;;;;;;56.60;26.23;;;10.70;41.00;;;;;;5006573;28;21178;-61
2022/04/24 00:45:29;;;;;;;59.13;24.90;;;10.80;41.20;;;;;;5007794;28;20464;-60
2022/04/24 00:47:56;;;;;;;57.83;25.43;;;10.70;41.00;;;;;;5009070;28;20492;-61
2022/04/24 00:50:24;;;;;;;55.70;26.27;;;10.70;40.90;;;;;;5005714;28;20977;-62
2022/04/24 00:52:51;;;;;;;55.97;24.90;;;10.80;40.90;;;;;;5006229;28;20470;-60
2022/04/24 00:55:22;;;;;;;59.50;25.77;;;10.80;40.80;;;;;;5015701;28;20472;-62
2022/04/24 00:57:49;;;;;;;55.50;24.43;;;10.80;40.40;;;;;;5009317;28;20519;-61
2022/04/24 01:00:18;;;;;;;57.77;25.43;;;10.80;40.40;;;;;;5013851;28;20471;-61
2022/04/24 01:02:45;;;;;;;55.63;24.90;;;10.80;40.30;;;;;;5002977;28;20467;-62
2022/04/24 01:05:11;;;;;;;57.43;25.23;;;10.90;40.30;;;;;;5009961;28;20464;-61
2022/04/24 01:07:38;;;;;;;54.33;23.30;;;10.90;40.30;;;;;;5014607;28;20574;-61
2022/04/24 01:10:06;;;;;;;57.07;27.30;;;10.90;40.20;;;;;;5010124;28;20460;-61
2022/04/24 01:12:33;;;;;;;55.17;24.00;;;10.90;40.10;;;;;;5012368;28;20463;-61
2022/04/24 01:15:00;;;;;;;58.47;25.63;;;10.90;40.20;;;;;;5007062;28;20464;-61
2022/04/24 01:17:28;;;;;;;56.10;25.73;;;10.90;40.20;;;;;;5004236;28;20479;-62
2022/04/24 01:19:55;;;;;;;55.47;25.37;;;10.90;39.80;;;;;;5004960;28;20467;-61
2022/04/24 01:22:23;;;;;;;59.40;27.60;;;10.90;39.60;;;;;;5011829;28;20475;-60
2022/04/24 01:24:50;;;;;;;54.87;24.63;;;11.00;39.60;;;;;;5006045;28;20953;-61
2022/04/24 01:27:16;;;;;;;55.33;23.13;;;11.00;39.40;;;;;;5013595;28;20498;-61
2022/04/24 01:29:43;;;;;;;54.57;24.70;;;11.00;39.50;;;;;;5006055;28;20479;-61
2022/04/24 01:32:10;;;;;;;56.93;25.60;;;11.00;39.30;;;;;;5009827;28;20490;-61
2022/04/24 01:34:37;;;;;;;59.53;27.20;;;11.10;39.30;;;;;;5004679;28;20478;-60
2022/04/24 01:37:04;;;;;;;59.37;27.30;;;11.10;39.20;;;;;;5003852;28;20461;-61
2022/04/24 01:39:32;;;;;;;55.67;25.33;;;11.10;39.00;;;;;;5010753;28;21071;-60
2022/04/24 01:41:59;;;;;;;55.40;24.70;;;11.10;39.30;;;;;;5014481;28;20467;-60
2022/04/24 01:44:25;;;;;;;57.97;25.90;;;11.10;39.10;;;;;;5007281;28;20722;-61
2022/04/24 01:46:53;;;;;;;54.70;24.80;;;11.10;38.90;;;;;;5005338;28;20563;-60
2022/04/24 01:49:20;;;;;;;54.50;25.13;;;11.10;38.70;;;;;;5010444;28;20479;-61
2022/04/24 01:51:48;;;;;;;57.93;27.10;;;11.10;38.70;;;;;;5018936;28;20478;-61
2022/04/24 01:54:15;;;;;;;56.87;26.50;;;11.20;38.70;;;;;;5012249;28;20472;-61
2022/04/24 01:56:44;;;;;;;55.03;25.30;;;11.20;38.40;;;;;;4999020;28;20464;-60
2022/04/24 01:59:11;;;;;;;56.67;26.50;;;11.20;38.40;;;;;;5010614;28;20488;-62
2022/04/24 02:01:38;;;;;;;58.40;27.73;;;11.20;38.20;;;;;;5004369;28;20468;-61
2022/04/24 02:04:05;;;;;;;56.17;27.17;;;11.20;38.30;;;;;;5002540;28;20464;-61
2022/04/24 02:06:31;;;;;;;53.53;24.20;;;11.20;38.30;;;;;;5004650;28;20495;-62
2022/04/24 02:08:58;;;;;;;53.80;24.30;;;11.20;38.20;;;;;;5014406;28;20482;-61
2022/04/24 02:11:25;;;;;;;57.97;26.40;;;11.20;38.20;;;;;;5006234;28;20463;-61
2022/04/24 02:13:53;;;;;;;55.50;25.20;;;11.30;38.20;;;;;;5012574;28;20570;-61
2022/04/24 02:16:20;;;;;;;54.27;25.03;;;11.30;38.10;;;;;;5002633;28;20472;-60
2022/04/24 02:18:47;;;;;;;56.13;26.77;;;11.30;38.10;;;;;;5013345;28;20590;-61
2022/04/24 02:21:13;;;;;;;57.00;26.40;;;11.30;38.10;;;;;;5006308;28;21165;-60
2022/04/24 02:23:40;;;;;;;55.87;25.30;;;11.30;38.10;;;;;;5010643;28;20461;-61
2022/04/24 02:26:07;;;;;;;58.77;28.00;;;11.30;38.00;;;;;;5000990;28;20857;-60
2022/04/24 02:28:34;;;;;;;55.60;25.47;;;11.30;37.90;;;;;;5012128;28;20498;-60
2022/04/24 02:31:02;;;;;;;56.00;26.00;;;11.30;37.90;;;;;;5006637;28;20483;-61
2022/04/24 02:33:29;;;;;;;56.03;26.37;;;11.30;37.90;;;;;;5004591;28;20468;-61
2022/04/24 02:35:55;;;;;;;58.30;26.60;;;11.30;37.80;;;;;;5002558;28;20504;-64
2022/04/24 02:38:22;;;;;;;53.30;25.47;;;11.30;37.60;;;;;;5009558;28;20479;-62
2022/04/24 02:40:49;;;;;;;59.57;26.67;;;11.30;38.10;;;;;;5014444;28;20470;-62
2022/04/24 02:43:16;;;;;;;57.87;28.40;;;11.30;38.30;;;;;;5012927;28;20841;-61
2022/04/24 02:45:43;;;;;;;57.70;27.17;;;11.30;38.20;;;;;;5006218;28;20475;-59
2022/04/24 02:48:11;;;;;;;55.93;25.47;;;11.30;38.40;;;;;;5011723;28;20487;-61
2022/04/24 02:50:39;;;;;;;59.30;27.00;;;11.30;38.70;;;;;;5011437;28;20459;-61
2022/04/24 02:53:07;;;;;;;58.27;26.83;;;11.20;39.40;;;;;;5008460;28;20468;-61
2022/04/24 02:55:34;;;;;;;59.00;27.40;;;11.20;39.20;;;;;;5004322;28;20468;-61
2022/04/24 02:58:01;;;;;;;64.27;26.60;;;11.30;39.20;;;;;;5016960;28;20486;-61
2022/04/24 03:00:39;;;;;;;54.73;25.23;;;11.30;39.30;;;;;;5009005;28;20466;-61
2022/04/24 03:03:07;;;;;;;55.97;25.77;;;11.30;39.40;;;;;;5006840;28;20595;-61
2022/04/24 03:05:36;;;;;;;56.93;27.30;;;11.20;39.50;;;;;;5007945;28;20463;-61
2022/04/24 03:08:03;;;;;;;58.17;26.63;;;11.10;40.60;;;;;;5012244;28;20494;-60
2022/04/24 03:10:30;;;;;;;62.13;27.90;;;11.10;40.40;;;;;;5007262;28;20456;-61
2022/04/24 03:12:57;;;;;;;58.63;26.97;;;11.10;40.10;;;;;;5012242;28;20466;-60
2022/04/24 03:15:23;;;;;;;58.80;26.93;;;11.10;40.30;;;;;;5016911;28;20479;-61
2022/04/24 03:17:51;;;;;;;57.77;25.90;;;11.10;40.50;;;;;;5019396;28;20478;-61
2022/04/24 03:20:18;;;;;;;61.57;28.77;;;11.00;40.50;;;;;;5007333;28;20471;-61
2022/04/24 03:22:46;;;;;;;60.70;27.80;;;11.00;40.70;;;;;;5007039;28;20464;-60
2022/04/24 03:25:13;;;;;;;57.77;26.93;;;11.00;41.00;;;;;;5005042;28;20459;-61
2022/04/24 03:27:40;;;;;;;60.60;27.70;;;11.00;41.00;;;;;;5023178;28;20490;-61
2022/04/24 03:30:09;;;;;;;61.77;29.37;;;10.90;41.30;;;;;;5009021;28;20469;-61
2022/04/24 03:32:36;;;;;;;58.83;28.37;;;11.00;41.60;;;;;;5006291;28;20507;-61
2022/04/24 03:35:05;;;;;;;59.47;28.13;;;11.00;41.50;;;;;;5006848;28;20460;-60
2022/04/24 03:37:32;;;;;;;59.17;27.40;;;10.90;41.50;;;;;;5008424;28;20487;-61
2022/04/24 03:40:00;;;;;;;58.10;26.30;;;10.90;41.60;;;;;;5018135;28;20462;-60
2022/04/24 03:42:28;;;;;;;61.00;28.87;;;10.90;41.60;;;;;;5010143;28;20461;-61
2022/04/24 03:44:55;;;;;;;60.90;25.20;;;10.90;42.40;;;;;;5008002;28;20464;-61
2022/04/24 03:47:22;;;;;;;63.30;26.67;;;10.90;41.60;;;;;;5006570;28;20488;-61
2022/04/24 03:49:48;;;;;;;66.23;30.00;;;10.90;41.80;;;;;;5007655;28;20468;-62
2022/04/24 03:52:15;;;;;;;62.97;28.43;;;10.90;42.00;;;;;;5002995;28;21260;-61
2022/04/24 03:54:43;;;;;;;59.37;27.50;;;10.90;42.20;;;;;;5007219;28;20467;-61
2022/04/24 03:57:12;;;;;;;58.30;27.87;;;10.90;42.80;;;;;;5005909;28;20475;-62
2022/04/24 03:59:39;;;;;;;60.13;28.37;;;10.90;43.10;;;;;;5007181;28;20475;-60
2022/04/24 04:02:06;;;;;;;62.67;29.17;;;10.90;43.70;;;;;;4999568;28;20503;-60
2022/04/24 04:04:33;;;;;;;61.80;29.60;;;10.80;43.90;;;;;;5006820;28;20464;-61
2022/04/24 04:07:00;;;;;;;58.43;28.40;;;10.80;44.10;;;;;;5005216;28;20515;-62
2022/04/24 04:09:27;;;;;;;62.10;28.70;;;10.80;44.10;;;;;;5009446;28;20471;-60
2022/04/24 04:11:54;;;;;;;64.30;31.10;;;10.80;44.40;;;;;;5004628;28;20476;-60
2022/04/24 04:14:22;;;;;;;68.70;32.20;;;10.80;44.40;;;;;;5006102;28;21065;-61
2022/04/24 04:16:49;;;;;;;61.30;28.93;;;10.80;44.90;;;;;;5004955;28;20488;-60
2022/04/24 04:19:16;;;;;;;61.10;28.40;;;10.80;45.00;;;;;;5006231;28;20567;-61
2022/04/24 04:21:43;;;;;;;61.60;28.47;;;10.80;45.20;;;;;;5003620;28;20546;-61
2022/04/24 04:24:10;;;;;;;62.67;30.97;;;10.70;45.70;;;;;;5003613;28;20554;-62
2022/04/24 04:26:37;;;;;;;55.77;24.57;;;10.80;45.80;;;;;;5006904;28;20571;-62
2022/04/24 04:29:04;;;;;;;61.57;28.27;;;10.80;45.70;;;;;;5005972;28;20487;-61
2022/04/24 04:31:32;;;;;;;55.83;24.40;;;10.70;45.70;;;;;;5004316;28;20515;-61
2022/04/24 04:33:59;;;;;;;55.27;23.27;;;10.70;45.50;;;;;;5007499;28;20495;-60
2022/04/24 04:36:26;;;;;;;53.77;23.00;;;10.70;45.10;;;;;;5006816;28;20472;-61
2022/04/24 04:38:52;;;;;;;52.07;22.30;;;10.70;44.80;;;;;;5014180;28;20484;-61
2022/04/24 04:41:19;;;;;;;52.97;20.63;;;10.70;44.70;;;;;;5006336;28;20472;-61
2022/04/24 04:43:46;;;;;;;54.90;20.47;;;10.70;44.60;;;;;;5005058;28;20463;-60
2022/04/24 04:46:12;;;;;;;54.37;23.53;;;10.70;44.30;;;;;;5005618;28;20541;-61
2022/04/24 04:48:41;;;;;;;55.93;23.40;;;10.70;44.00;;;;;;5009068;28;20487;-60
2022/04/24 04:51:07;;;;;;;56.17;23.33;;;10.70;44.00;;;;;;5005823;28;20474;-62
2022/04/24 04:53:34;;;;;;;56.57;26.03;;;10.70;44.40;;;;;;5004082;28;21126;-61
2022/04/24 04:56:01;;;;;;;58.80;25.40;;;10.70;44.80;;;;;;5005594;28;21048;-61
2022/04/24 04:58:28;;;;;;;56.90;23.63;;;10.70;44.90;;;;;;5003917;28;20523;-61
2022/04/24 05:00:55;;;;;;;57.20;24.43;;;10.70;45.20;;;;;;5005978;28;20503;-61
2022/04/24 05:03:22;;;;;;;50.53;19.10;;;10.70;44.30;;;;;;5003382;28;20459;-60
2022/04/24 05:05:50;;;;;;;49.33;18.70;;;10.70;44.30;;;;;;5001440;28;20885;-61
2022/04/24 05:08:17;;;;;;;51.03;19.80;;;10.70;44.30;;;;;;5001140;28;21044;-60
2022/04/24 05:10:44;;;;;;;50.50;19.20;;;10.70;44.00;;;;;;5004833;28;20475;-61
2022/04/24 05:13:10;;;;;;;51.50;22.20;;;10.70;43.90;;;;;;5002237;28;20464;-59
2022/04/24 05:15:37;;;;;;;51.93;21.67;;;10.60;44.20;;;;;;5005400;28;20470;-60
2022/04/24 05:18:04;;;;;;;52.13;19.90;;;10.60;44.30;;;;;;5008759;28;20482;-60
2022/04/24 05:20:31;;;;;;;51.27;20.80;;;10.60;44.80;;;;;;5005279;28;20470;-61
2022/04/24 05:23:05;;;;;;;53.37;22.33;;;10.60;44.90;;;;;;5005692;28;20460;-61
2022/04/24 05:25:32;;;;;;;54.13;21.47;;;10.60;45.30;;;;;;5003089;28;20471;-61
2022/04/24 05:28:00;;;;;;;51.90;21.60;;;10.60;45.50;;;;;;5006689;28;20692;-60
2022/04/24 05:30:28;;;;;;;56.37;23.30;;;10.60;45.60;;;;;;5003974;28;20476;-61
2022/04/24 05:32:56;;;;;;;54.50;22.70;;;10.60;45.70;;;;;;5005994;28;20463;-60
2022/04/24 05:35:23;;;;;;;55.07;22.73;;;10.60;45.90;;;;;;5003821;28;20468;-59
2022/04/24 05:37:50;;;;;;;52.20;21.50;;;10.60;46.10;;;;;;5006714;28;20502;-61
2022/04/24 05:40:19;;;;;;;53.23;22.40;;;10.60;46.10;;;;;;5004158;28;20479;-61
2022/04/24 05:42:48;;;;;;;54.73;22.47;;;10.60;46.00;;;;;;5006670;28;20961;-61
2022/04/24 05:45:18;;;;;;;54.10;23.37;;;10.70;45.90;;;;;;5004312;28;20456;-60
2022/04/24 05:47:45;;;;;;;56.43;24.37;;;10.70;45.70;;;;;;5004307;28;20487;-60
2022/04/24 05:50:12;;;;;;;54.00;23.27;;;10.70;45.50;;;;;;5007210;28;20957;-60
2022/04/24 05:52:39;;;;;;;58.47;26.10;;;10.70;45.50;;;;;;5004921;28;20468;-61
2022/04/24 05:55:06;;;;;;;55.37;24.53;;;10.70;45.50;;;;;;5003595;28;20845;-60
2022/04/24 05:57:35;;;;;;;57.37;24.50;;;10.80;45.40;;;;;;5004213;28;20989;-61
2022/04/24 06:00:01;;;;;;;52.00;22.17;;;10.80;45.60;;;;;;5007839;28;20464;-61
2022/04/24 06:02:28;;;;;;;54.07;22.00;;;10.80;45.70;;;;;;5003912;28;20794;-60
2022/04/24 06:04:55;;;;;;;51.23;20.97;;;10.80;45.80;;;;;;5006402;28;21165;-60
2022/04/24 06:07:23;;;;;;;51.57;19.07;;;10.80;46.50;;;;;;5003367;28;20480;-60
2022/04/24 06:09:50;;;;;;;43.20;12.70;;;10.80;45.50;;;;;;5005480;28;20490;-61
2022/04/24 06:12:16;;;;;;;45.07;14.57;;;10.80;45.00;;;;;;5005574;28;20482;-59
2022/04/24 06:14:45;;;;;;;39.60;11.47;;;10.80;44.80;;;;;;5008863;28;20463;-60
2022/04/24 06:17:12;;;;;;;37.00;9.37;;;10.80;44.70;;;;;;5011018;28;20467;-60
2022/04/24 06:19:38;;;;;;;34.37;7.10;;;10.70;44.30;;;;;;5011497;28;20548;-61
2022/04/24 06:22:06;;;;;;;33.97;6.50;;;10.70;44.00;;;;;;5010545;28;20859;-61
2022/04/24 06:24:33;;;;;;;31.20;4.00;;;10.70;43.50;;;;;;5011674;28;20848;-60
2022/04/24 06:26:59;;;;;;;33.30;4.23;;;10.70;42.80;;;;;;5011023;28;20475;-61
2022/04/24 06:29:27;;;;;;;31.10;4.83;;;10.60;42.50;;;;;;5010090;28;20483;-59
2022/04/24 06:31:55;;;;;;;31.23;4.03;;;10.60;42.90;;;;;;5010876;28;20474;-60
2022/04/24 06:34:21;;;;;;;31.50;4.47;;;10.60;42.10;;;;;;5008963;28;20983;-60
2022/04/24 06:36:48;;;;;;;31.30;5.20;;;10.60;42.00;;;;;;5010673;28;20470;-61
2022/04/24 06:39:15;;;;;;;31.23;4.40;;;10.70;41.90;;;;;;5007102;28;20518;-62
2022/04/24 06:41:42;;;;;;;30.40;3.00;;;10.70;42.10;;;;;;5007759;28;20562;-62
2022/04/24 06:44:09;;;;;;;30.50;3.20;;;10.70;41.70;;;;;;5005871;28;20494;-61
2022/04/24 06:46:36;;;;;;;30.80;3.53;;;10.70;41.60;;;;;;5007063;28;20833;-61
2022/04/24 06:49:04;;;;;;;31.03;3.17;;;10.70;41.50;;;;;;5012535;28;20491;-61
2022/04/24 06:51:30;;;;;;;31.37;4.40;;;10.60;41.30;;;;;;5011599;28;20473;-61
2022/04/24 06:53:57;;;;;;;29.93;2.73;;;10.70;41.40;;;;;;5016001;28;20473;-59
2022/04/24 06:56:24;;;;;;;29.57;2.73;;;10.70;41.50;;;;;;5010476;28;20478;-61
2022/04/24 06:58:51;;;;;;;29.90;2.40;;;10.70;41.20;;;;;;5012040;28;20554;-61
2022/04/24 07:01:19;;;;;;;29.80;2.90;;;10.80;40.80;;;;;;5010079;28;21041;-60
2022/04/24 07:03:46;;;;;;;29.70;2.43;;;10.80;40.70;;;;;;5010136;28;20475;-60
2022/04/24 07:06:14;;;;;;;30.30;2.37;;;10.80;40.40;;;;;;5012616;28;20455;-60
2022/04/24 07:08:41;;;;;;;29.67;2.23;;;10.90;39.90;;;;;;5013433;28;21048;-60
2022/04/24 07:11:08;;;;;;;29.70;2.50;;;10.90;39.90;;;;;;5011452;28;20459;-59
2022/04/24 07:13:36;;;;;;;29.73;2.70;;;10.90;39.70;;;;;;5012655;28;20483;-60
2022/04/24 07:16:03;;;;;;;29.67;2.83;;;10.90;39.60;;;;;;5009212;28;20877;-58
2022/04/24 07:18:30;;;;;;;30.73;2.90;;;11.00;39.40;;;;;;5011194;28;20479;-60
2022/04/24 07:20:58;;;;;;;28.53;1.90;;;11.00;39.20;;;;;;5012508;28;20839;-61
2022/04/24 07:23:26;;;;;;;29.47;2.73;;;11.00;39.00;;;;;;5009848;28;20472;-60
2022/04/24 07:25:53;;;;;;;29.00;2.40;;;11.00;39.00;;;;;;5007641;28;20464;-61
2022/04/24 07:28:19;;;;;;;30.20;3.20;;;11.10;38.90;;;;;;5008558;28;20497;-59
2022/04/24 07:30:47;;;;;;;30.13;2.60;;;11.10;38.80;;;;;;5009312;28;20480;-58
2022/04/24 07:33:14;;;;;;;29.23;3.43;;;11.10;38.80;;;;;;5006589;28;20471;-57
2022/04/24 07:35:42;;;;;;;30.20;2.03;;;11.10;38.60;;;;;;5007198;28;20479;-59
2022/04/24 07:38:09;;;;;;;29.60;2.37;;;11.20;38.50;;;;;;5008836;28;20483;-59
2022/04/24 07:40:39;;;;;;;29.30;2.73;;;11.20;38.20;;;;;;5012741;28;20985;-59
2022/04/24 07:43:08;;;;;;;28.93;2.10;;;11.30;38.10;;;;;;5005104;28;20451;-59
2022/04/24 07:45:36;;;;;;;29.03;2.30;;;11.30;38.00;;;;;;5009791;28;20468;-59
2022/04/24 07:48:04;;;;;;;28.57;2.00;;;11.40;38.00;;;;;;5008371;28;21041;-59
2022/04/24 07:50:34;;;;;;;28.87;2.60;;;11.50;37.90;;;;;;5008547;28;20475;-58
2022/04/24 07:53:02;;;;;;;29.40;2.37;;;11.60;37.60;;;;;;5005888;28;20833;-59
2022/04/24 07:55:29;;;;;;;29.67;3.00;;;11.70;37.40;;;;;;5006421;28;20954;-58
2022/04/24 07:57:58;;;;;;;29.07;2.40;;;11.80;37.10;;;;;;5008176;28;20488;-58
2022/04/24 08:00:27;;;;;;;33.47;3.00;;;11.90;36.70;;;;;;5005920;28;20466;-64
2022/04/24 08:02:57;;;;;;;28.40;1.83;;;12.10;36.50;;;;;;5009018;28;20464;-59
2022/04/24 08:05:25;;;;;;;28.87;2.90;;;12.20;36.20;;;;;;5007333;28;20464;-60
2022/04/24 08:07:52;;;;;;;28.83;2.20;;;12.30;35.50;;;;;;5005984;28;20495;-60
2022/04/24 08:10:20;;;;;;;29.60;2.50;;;12.40;34.70;;;;;;5011229;28;20464;-59
2022/04/24 08:12:47;;;;;;;28.47;1.83;;;12.40;34.10;;;;;;5008556;28;20468;-63
2022/04/24 08:15:16;;;;;;;28.70;1.80;;;12.50;34.00;;;;;;5009442;28;20470;-64
2022/04/24 08:17:43;;;;;;;28.37;2.20;;;12.60;34.00;;;;;;5004481;28;20504;-61
2022/04/24 08:20:12;;;;;;;29.50;2.63;;;12.60;33.60;;;;;;5012902;28;20477;-61
2022/04/24 08:22:40;;;;;;;28.70;3.23;;;12.60;33.70;;;;;;5009759;28;20468;-60
2022/04/24 08:25:08;;;;;;;28.70;2.00;;;12.70;33.20;;;;;;5006557;28;20472;-59
2022/04/24 08:27:35;;;;;;;28.53;3.37;;;12.70;32.90;;;;;;5005827;28;20500;-59
2022/04/24 08:30:03;;;;;;;29.80;2.40;;;12.70;32.20;;;;;;5008925;28;20484;-62
2022/04/24 08:32:31;;;;;;;29.70;3.90;;;12.70;32.20;;;;;;5006137;28;20509;-61
2022/04/24 08:34:58;;;;;;;29.20;2.90;;;12.80;32.30;;;;;;5003573;28;20483;-61
2022/04/24 08:37:25;;;;;;;29.07;3.17;;;12.90;32.50;;;;;;5005396;28;20486;-61
2022/04/24 08:39:53;;;;;;;28.90;2.50;;;13.00;31.70;;;;;;5006543;28;20826;-62
2022/04/24 08:42:21;;;;;;;28.37;2.67;;;13.00;31.30;;;;;;5003567;28;20474;-63
2022/04/24 08:44:49;;;;;;;28.37;2.37;;;13.00;30.80;;;;;;5008590;28;20491;-60
2022/04/24 08:47:17;;;;;;;29.00;2.97;;;13.00;30.90;;;;;;5008142;28;20565;-61
2022/04/24 08:49:46;;;;;;;28.70;2.23;;;13.00;31.00;;;;;;5006627;28;20599;-63
2022/04/24 08:52:14;;;;;;;28.47;2.30;;;13.00;30.20;;;;;;5007900;28;20468;-62
2022/04/24 08:54:41;;;;;;;28.80;2.87;;;13.00;30.10;;;;;;5007299;28;20473;-62
2022/04/24 08:57:09;;;;;;;28.50;2.47;;;13.10;30.10;;;;;;5008528;28;20485;-61
2022/04/24 08:59:36;;;;;;;29.00;3.17;;;13.20;29.90;;;;;;5005027;28;20466;-62
2022/04/24 09:02:04;;;;;;;28.90;2.80;;;13.20;29.70;;;;;;5005868;28;20548;-62
2022/04/24 09:04:32;;;;;;;29.27;3.27;;;13.20;29.40;;;;;;5002448;28;20465;-61
2022/04/24 09:07:01;;;;;;;28.67;1.97;;;13.10;29.20;;;;;;5006868;28;20509;-62
2022/04/24 09:09:28;;;;;;;28.43;3.23;;;13.00;29.50;;;;;;5006197;28;20483;-61
2022/04/24 09:12:07;;;;;;;29.40;3.60;;;12.90;29.90;;;;;;5007168;28;20512;-61
2022/04/24 09:14:34;;;;;;;28.77;2.67;;;12.80;30.20;;;;;;5003309;28;20464;-61
2022/04/24 09:17:05;;;;;;;29.43;2.20;;;12.70;30.30;;;;;;4997531;28;20969;-61
2022/04/24 09:19:33;;;;;;;29.07;3.60;;;12.60;29.90;;;;;;5002359;28;20468;-61
2022/04/24 09:22:07;;;;;;;28.73;2.30;;;12.60;30.70;;;;;;5001825;28;20460;-62
2022/04/24 09:24:42;;;;;;;29.03;3.30;;;12.80;30.60;;;;;;5001923;28;21226;-61
2022/04/24 09:27:09;;;;;;;28.83;2.40;;;13.00;29.70;;;;;;5003164;28;20468;-63
2022/04/24 09:29:37;;;;;;;28.70;2.33;;;13.10;29.40;;;;;;5006313;28;20488;-58
2022/04/24 09:32:12;;;;;;;28.80;1.90;;;13.30;28.80;;;;;;5005764;28;20476;-59
2022/04/24 09:34:40;;;;;;;28.67;2.57;;;13.40;29.20;;;;;;5003242;28;21298;-57
2022/04/24 09:37:10;;;;;;;28.60;2.20;;;13.40;28.70;;;;;;5008824;28;20525;-58
2022/04/24 09:39:38;;;;;;;27.80;1.73;;;13.40;28.30;;;;;;5004245;28;20542;-58
2022/04/24 09:42:06;;;;;;;28.17;1.97;;;13.40;27.30;;;;;;5004414;28;20459;-59
2022/04/24 09:44:38;;;;;;;28.07;2.20;;;13.40;27.80;;;;;;5008691;28;20463;-58
2022/04/24 09:47:05;;;;;;;28.30;2.17;;;13.40;28.30;;;;;;5007072;28;21028;-60
2022/04/24 09:49:36;;;;;;;27.87;1.73;;;13.40;28.50;;;;;;5010300;28;20526;-58
2022/04/24 09:52:04;;;;;;;28.27;2.50;;;13.50;28.10;;;;;;5007405;28;20464;-59
2022/04/24 09:54:33;;;;;;;27.47;1.47;;;13.40;27.80;;;;;;5012069;28;20463;-60
2022/04/24 09:57:01;;;;;;;27.97;1.93;;;13.30;28.80;;;;;;5008067;28;20477;-58
2022/04/24 09:59:29;;;;;;;27.60;1.70;;;13.30;29.10;;;;;;5012717;28;20487;-59
2022/04/24 10:01:57;;;;;;;27.97;2.40;;;13.30;29.20;;;;;;5005002;28;20475;-58
2022/04/24 10:04:24;;;;;;;27.93;1.87;;;13.40;28.80;;;;;;5010671;28;21185;-60
2022/04/24 10:06:52;;;;;;;28.27;2.97;;;13.60;28.30;;;;;;5008772;28;20962;-59
2022/04/24 10:09:19;;;;;;;27.93;2.27;;;13.70;28.30;;;;;;5010645;28;20483;-59
2022/04/24 10:11:48;;;;;;;27.93;2.87;;;13.80;27.70;;;;;;5003100;28;20471;-60
2022/04/24 10:14:17;;;;;;;27.97;1.70;;;14.00;27.00;;;;;;5006321;28;20483;-58
2022/04/24 10:17:26;;;;;;;28.50;1.90;;;14.10;25.70;;;;;;5004795;28;21042;-59
2022/04/24 10:20:11;;;;;;;27.97;2.47;;;14.20;25.80;;;;;;5010398;28;20862;-58
2022/04/24 10:22:40;;;;;;;28.63;2.13;;;14.20;25.50;;;;;;5001721;28;20466;-59
2022/04/24 10:25:08;;;;;;;27.83;1.63;;;14.20;24.90;;;;;;5008256;28;20461;-59
2022/04/24 10:27:41;;;;;;;27.37;1.73;;;14.20;24.60;;;;;;5008784;28;20483;-58
2022/04/24 10:30:12;;;;;;;28.00;1.93;;;14.20;25.80;;;;;;5008069;28;20495;-58
2022/04/24 10:32:39;;;;;;;28.00;2.80;;;14.30;25.90;;;;;;5007345;28;20549;-58
2022/04/24 10:35:16;;;;;;;27.73;1.80;;;14.40;25.90;;;;;;5009347;28;20854;-58
2022/04/24 10:37:44;;;;;;;27.67;1.77;;;14.50;24.60;;;;;;5008718;28;20482;-58
2022/04/24 10:40:14;;;;;;;27.87;2.47;;;14.60;24.60;;;;;;5006609;28;20482;-59
2022/04/24 10:42:43;;;;;;;27.33;2.00;;;14.70;24.30;;;;;;5005627;28;20877;-58
2022/04/24 10:45:14;;;;;;;27.20;1.87;;;14.90;24.60;;;;;;4998083;28;20548;-59
2022/04/24 10:47:43;;;;;;;27.43;2.30;;;15.10;24.70;;;;;;5001142;28;20490;-60
2022/04/24 10:50:10;;;;;;;27.60;3.30;;;15.50;24.10;;;;;;5005002;28;20512;-60
2022/04/24 10:52:41;;;;;;;27.40;2.87;;;15.70;22.50;;;;;;5004608;28;20486;-58
2022/04/24 10:55:09;;;;;;;27.40;1.87;;;16.00;22.20;;;;;;5002186;28;20471;-59
2022/04/24 10:57:43;;;;;;;27.07;2.70;;;16.10;20.00;;;;;;5010042;28;20491;-58
2022/04/24 11:00:19;;;;;;;27.07;2.37;;;16.10;21.20;;;;;;5012964;28;20459;-61
2022/04/24 11:02:46;;;;;;;26.80;1.93;;;16.30;21.70;;;;;;5009559;28;20491;-61
2022/04/24 11:05:19;;;;;;;27.43;2.10;;;16.50;21.50;;;;;;5009429;28;20456;-60
2022/04/24 11:07:46;;;;;;;26.83;1.90;;;16.70;19.60;;;;;;5012453;28;20479;-60
2022/04/24 11:10:14;;;;;;;27.07;2.57;;;16.70;18.80;;;;;;5004120;28;20520;-60
2022/04/24 11:12:42;;;;;;;27.17;2.63;;;16.80;18.50;;;;;;5006384;28;20464;-60
2022/04/24 11:15:12;;;;;;;27.10;2.43;;;16.80;18.30;;;;;;4998758;28;20472;-60
2022/04/24 11:17:39;;;;;;;28.80;3.70;;;16.60;18.60;;;;;;5002847;28;20502;-62
2022/04/24 11:20:09;;;;;;;27.10;3.40;;;16.60;18.00;;;;;;4998480;28;20471;-59
2022/04/24 11:22:46;;;;;;;26.90;1.93;;;16.50;18.60;;;;;;5005569;28;20470;-57
2022/04/24 11:25:14;;;;;;;28.60;2.67;;;16.40;18.80;;;;;;5001638;28;20460;-58
2022/04/24 11:27:43;;;;;;;27.10;2.40;;;16.30;19.50;;;;;;5009354;28;20540;-58
2022/04/24 11:30:17;;;;;;;26.70;2.00;;;16.20;19.60;;;;;;5006214;28;20529;-57
2022/04/24 11:32:58;;;;;;;27.17;2.10;;;16.10;19.50;;;;;;5004976;28;20460;-57
2022/04/24 11:35:28;;;;;;;27.67;3.13;;;16.00;20.30;;;;;;5005549;28;20546;-58
2022/04/24 11:37:55;;;;;;;30.07;6.70;;;15.90;20.90;;;;;;5003510;28;20487;-57
2022/04/24 11:40:23;;;;;;;28.60;4.13;;;16.00;20.20;;;;;;4994501;28;20971;-57
2022/04/24 11:42:51;;;;;;;28.00;3.73;;;16.10;20.30;;;;;;4994515;28;20460;-57
2022/04/24 11:50:51;;;;;;;28.10;3.70;;;16.00;19.20;;;;;;4990718;28;20503;-57
2022/04/24 11:53:20;;;;;;;31.53;6.27;;;16.10;19.50;;;;;;4995986;28;20498;-57
2022/04/24 11:56:02;;;;;;;33.00;6.87;;;16.10;18.90;;;;;;4997876;28;20472;-57
2022/04/24 11:58:34;;;;;;;30.00;4.50;;;16.00;18.00;;;;;;5007996;28;21325;-58
2022/04/24 12:01:02;;;;;;;27.30;2.43;;;16.00;18.80;;;;;;4997665;28;21044;-58
2022/04/24 12:03:30;;;;;;;27.80;1.70;;;16.00;18.90;;;;;;5001998;28;20459;-58
2022/04/24 12:06:02;;;;;;;28.03;2.77;;;16.00;18.40;;;;;;5008267;28;20468;-58
2022/04/24 12:08:40;;;;;;;27.70;2.00;;;16.00;17.80;;;;;;5004335;28;20487;-57
2022/04/24 12:11:07;;;;;;;27.37;2.33;;;16.00;18.00;;;;;;5007627;28;20485;-60
2022/04/24 12:13:35;;;;;;;27.00;2.00;;;16.00;18.10;;;;;;5004167;28;21197;-57
2022/04/24 12:16:02;;;;;;;27.57;2.73;;;16.00;18.60;;;;;;5004311;28;20518;-57
2022/04/24 12:18:29;;;;;;;27.53;2.10;;;16.20;18.20;;;;;;5007015;28;20511;-58
2022/04/24 12:20:56;;;;;;;27.90;3.53;;;16.10;17.60;;;;;;5006651;28;20460;-58
2022/04/24 12:23:23;;;;;;;27.07;2.30;;;16.20;18.80;;;;;;5006069;28;20462;-58
2022/04/24 12:25:51;;;;;;;27.10;1.90;;;16.30;18.10;;;;;;5007303;28;20467;-58
2022/04/24 12:28:35;;;;;;;28.00;2.10;;;16.30;18.30;;;;;;5004511;28;20495;-57
2022/04/24 12:31:06;;;;;;;28.50;4.13;;;16.30;17.10;;;;;;5003581;28;20472;-58
2022/04/24 12:33:44;;;;;;;28.03;2.17;;;16.20;17.50;;;;;;5009054;28;21069;-57
2022/04/24 12:36:14;;;;;;;28.10;2.43;;;16.20;18.10;;;;;;5012302;28;20474;-58
2022/04/24 12:38:41;;;;;;;28.00;2.20;;;16.10;17.80;;;;;;5009392;28;20483;-58
2022/04/24 12:41:11;;;;;;;27.13;1.93;;;15.90;18.10;;;;;;5009594;28;20993;-58